sensor_id;sensor_type;location;lat;lon;timestamp;P1;durP1;ratioP1;P2;durP2;ratioP2
80746;SDS011;75521;50.218;14.322;2024-02-23T00:02:13;5.03;;;2.90;;
80746;SDS011;75521;50.218;14.322;2024-02-23T00:04:39;3.58;;;2.90;;
80746;SDS011;75521;50.218;14.322;2024-02-23T00:07:04;5.40;;;3.33;;
80746;SDS011;75521;50.218;14.322;2024-02-23T00:09:29;4.38;;;2.92;;
80746;SDS011;75521;50.218;14.322;2024-02-23T00:11:55;4.80;;;3.00;;
80746;SDS011;75521;50.218;14.322;2024-02-23T00:14:20;4.93;;;2.47;;
80746;SDS011;75521;50.218;14.322;2024-02-23T00:16:45;2.10;;;1.13;;
80746;SDS011;75521;50.218;14.322;2024-02-23T00:19:11;3.70;;;2.20;;
80746;SDS011;75521;50.218;14.322;2024-02-23T00:21:37;2.70;;;1.73;;
80746;SDS011;75521;50.218;14.322;2024-02-23T00:24:02;1.95;;;1.38;;
80746;SDS011;75521;50.218;14.322;2024-02-23T00:26:28;6.20;;;2.78;;
80746;SDS011;75521;50.218;14.322;2024-02-23T00:28:54;4.70;;;2.55;;
80746;SDS011;75521;50.218;14.322;2024-02-23T00:31:20;3.63;;;2.53;;
80746;SDS011;75521;50.218;14.322;2024-02-23T00:33:45;3.13;;;1.60;;
80746;SDS011;75521;50.218;14.322;2024-02-23T00:36:10;4.05;;;2.20;;
80746;SDS011;75521;50.218;14.322;2024-02-23T00:38:36;14.00;;;7.20;;
80746;SDS011;75521;50.218;14.322;2024-02-23T00:41:01;13.65;;;6.65;;
80746;SDS011;75521;50.218;14.322;2024-02-23T00:43:27;16.95;;;7.38;;
80746;SDS011;75521;50.218;14.322;2024-02-23T00:45:54;18.77;;;7.57;;
80746;SDS011;75521;50.218;14.322;2024-02-23T00:48:20;24.45;;;9.57;;
80746;SDS011;75521;50.218;14.322;2024-02-23T00:50:45;32.63;;;12.43;;
80746;SDS011;75521;50.218;14.322;2024-02-23T00:53:10;42.38;;;16.70;;
80746;SDS011;75521;50.218;14.322;2024-02-23T00:55:36;22.67;;;9.23;;
80746;SDS011;75521;50.218;14.322;2024-02-23T00:58:01;42.47;;;15.63;;
80746;SDS011;75521;50.218;14.322;2024-02-23T01:00:28;36.22;;;14.88;;
80746;SDS011;75521;50.218;14.322;2024-02-23T01:02:54;10.00;;;4.95;;
80746;SDS011;75521;50.218;14.322;2024-02-23T01:05:19;14.88;;;8.82;;
80746;SDS011;75521;50.218;14.322;2024-02-23T01:07:45;8.05;;;5.28;;
80746;SDS011;75521;50.218;14.322;2024-02-23T01:10:10;4.70;;;2.88;;
80746;SDS011;75521;50.218;14.322;2024-02-23T01:12:36;2.60;;;1.80;;
80746;SDS011;75521;50.218;14.322;2024-02-23T01:15:01;2.60;;;1.90;;
80746;SDS011;75521;50.218;14.322;2024-02-23T01:17:26;5.85;;;4.72;;
80746;SDS011;75521;50.218;14.322;2024-02-23T01:19:52;6.72;;;5.43;;
80746;SDS011;75521;50.218;14.322;2024-02-23T01:22:17;4.13;;;2.70;;
80746;SDS011;75521;50.218;14.322;2024-02-23T01:24:42;3.17;;;1.88;;
80746;SDS011;75521;50.218;14.322;2024-02-23T01:27:08;2.33;;;1.90;;
80746;SDS011;75521;50.218;14.322;2024-02-23T01:29:33;3.25;;;1.63;;
80746;SDS011;75521;50.218;14.322;2024-02-23T01:31:59;2.92;;;2.25;;
80746;SDS011;75521;50.218;14.322;2024-02-23T01:34:24;1.90;;;1.27;;
80746;SDS011;75521;50.218;14.322;2024-02-23T01:36:50;3.00;;;1.75;;
80746;SDS011;75521;50.218;14.322;2024-02-23T01:39:15;2.78;;;1.42;;
80746;SDS011;75521;50.218;14.322;2024-02-23T01:41:41;1.42;;;1.33;;
80746;SDS011;75521;50.218;14.322;2024-02-23T01:46:32;1.10;;;0.90;;
80746;SDS011;75521;50.218;14.322;2024-02-23T01:48:58;2.55;;;0.52;;
80746;SDS011;75521;50.218;14.322;2024-02-23T01:51:24;1.52;;;1.10;;
80746;SDS011;75521;50.218;14.322;2024-02-23T01:53:50;1.45;;;0.60;;
80746;SDS011;75521;50.218;14.322;2024-02-23T01:56:16;1.13;;;0.60;;
80746;SDS011;75521;50.218;14.322;2024-02-23T01:58:42;1.55;;;0.50;;
80746;SDS011;75521;50.218;14.322;2024-02-23T02:01:08;0.73;;;0.47;;
80746;SDS011;75521;50.218;14.322;2024-02-23T02:03:34;1.02;;;0.68;;
80746;SDS011;75521;50.218;14.322;2024-02-23T02:06:00;0.70;;;0.60;;
80746;SDS011;75521;50.218;14.322;2024-02-23T02:08:26;0.70;;;0.60;;
80746;SDS011;75521;50.218;14.322;2024-02-23T02:10:51;1.27;;;0.60;;
80746;SDS011;75521;50.218;14.322;2024-02-23T02:13:17;0.55;;;0.55;;
80746;SDS011;75521;50.218;14.322;2024-02-23T02:15:42;2.05;;;0.50;;
80746;SDS011;75521;50.218;14.322;2024-02-23T02:18:09;0.40;;;0.35;;
80746;SDS011;75521;50.218;14.322;2024-02-23T02:20:35;0.93;;;0.70;;
80746;SDS011;75521;50.218;14.322;2024-02-23T02:23:01;0.65;;;0.40;;
80746;SDS011;75521;50.218;14.322;2024-02-23T02:25:27;0.82;;;0.50;;
80746;SDS011;75521;50.218;14.322;2024-02-23T02:27:52;0.85;;;0.50;;
80746;SDS011;75521;50.218;14.322;2024-02-23T02:30:18;0.77;;;0.52;;
80746;SDS011;75521;50.218;14.322;2024-02-23T02:32:43;0.52;;;0.30;;
80746;SDS011;75521;50.218;14.322;2024-02-23T02:35:10;1.00;;;0.45;;
80746;SDS011;75521;50.218;14.322;2024-02-23T02:37:36;0.65;;;0.20;;
80746;SDS011;75521;50.218;14.322;2024-02-23T02:40:02;0.80;;;0.30;;
80746;SDS011;75521;50.218;14.322;2024-02-23T02:42:28;0.43;;;0.20;;
80746;SDS011;75521;50.218;14.322;2024-02-23T02:44:53;0.55;;;0.30;;
80746;SDS011;75521;50.218;14.322;2024-02-23T02:47:19;0.52;;;0.43;;
80746;SDS011;75521;50.218;14.322;2024-02-23T02:49:44;0.50;;;0.10;;
80746;SDS011;75521;50.218;14.322;2024-02-23T02:52:10;0.15;;;0.13;;
80746;SDS011;75521;50.218;14.322;2024-02-23T02:54:35;1.38;;;0.30;;
80746;SDS011;75521;50.218;14.322;2024-02-23T02:57:01;0.10;;;0.10;;
80746;SDS011;75521;50.218;14.322;2024-02-23T02:59:26;0.10;;;0.10;;
80746;SDS011;75521;50.218;14.322;2024-02-23T03:01:51;1.38;;;0.30;;
80746;SDS011;75521;50.218;14.322;2024-02-23T03:04:17;0.13;;;0.13;;
80746;SDS011;75521;50.218;14.322;2024-02-23T03:06:42;1.75;;;0.40;;
80746;SDS011;75521;50.218;14.322;2024-02-23T03:09:07;0.30;;;0.25;;
80746;SDS011;75521;50.218;14.322;2024-02-23T03:11:33;2.70;;;0.38;;
80746;SDS011;75521;50.218;14.322;2024-02-23T03:13:58;1.10;;;0.20;;
80746;SDS011;75521;50.218;14.322;2024-02-23T03:16:24;0.60;;;0.38;;
80746;SDS011;75521;50.218;14.322;2024-02-23T03:18:51;1.25;;;0.30;;
80746;SDS011;75521;50.218;14.322;2024-02-23T03:21:17;0.45;;;0.30;;
80746;SDS011;75521;50.218;14.322;2024-02-23T03:23:42;0.50;;;0.30;;
80746;SDS011;75521;50.218;14.322;2024-02-23T03:26:08;1.23;;;0.60;;
80746;SDS011;75521;50.218;14.322;2024-02-23T03:28:33;0.90;;;0.30;;
80746;SDS011;75521;50.218;14.322;2024-02-23T03:30:59;0.43;;;0.20;;
80746;SDS011;75521;50.218;14.322;2024-02-23T03:33:25;0.47;;;0.30;;
80746;SDS011;75521;50.218;14.322;2024-02-23T03:35:50;0.28;;;0.20;;
80746;SDS011;75521;50.218;14.322;2024-02-23T03:38:16;0.10;;;0.10;;
80746;SDS011;75521;50.218;14.322;2024-02-23T03:40:41;0.63;;;0.30;;
80746;SDS011;75521;50.218;14.322;2024-02-23T03:43:07;0.73;;;0.40;;
80746;SDS011;75521;50.218;14.322;2024-02-23T03:45:32;0.43;;;0.20;;
80746;SDS011;75521;50.218;14.322;2024-02-23T03:47:58;0.43;;;0.25;;
80746;SDS011;75521;50.218;14.322;2024-02-23T03:50:24;0.40;;;0.10;;
80746;SDS011;75521;50.218;14.322;2024-02-23T03:52:49;0.90;;;0.30;;
80746;SDS011;75521;50.218;14.322;2024-02-23T03:55:15;0.40;;;0.20;;
80746;SDS011;75521;50.218;14.322;2024-02-23T03:57:40;0.52;;;0.30;;
80746;SDS011;75521;50.218;14.322;2024-02-23T04:00:06;1.17;;;0.20;;
80746;SDS011;75521;50.218;14.322;2024-02-23T04:02:32;0.30;;;0.10;;
80746;SDS011;75521;50.218;14.322;2024-02-23T04:04:58;0.10;;;0.10;;
80746;SDS011;75521;50.218;14.322;2024-02-23T04:07:23;0.88;;;0.30;;
80746;SDS011;75521;50.218;14.322;2024-02-23T04:09:49;0.85;;;0.32;;
80746;SDS011;75521;50.218;14.322;2024-02-23T04:12:18;0.82;;;0.20;;
80746;SDS011;75521;50.218;14.322;2024-02-23T04:14:44;0.50;;;0.20;;
80746;SDS011;75521;50.218;14.322;2024-02-23T04:17:10;0.47;;;0.40;;
80746;SDS011;75521;50.218;14.322;2024-02-23T04:19:37;1.50;;;0.20;;
80746;SDS011;75521;50.218;14.322;2024-02-23T04:22:02;0.20;;;0.10;;
80746;SDS011;75521;50.218;14.322;2024-02-23T04:24:28;0.10;;;0.10;;
80746;SDS011;75521;50.218;14.322;2024-02-23T04:26:54;0.20;;;0.00;;
80746;SDS011;75521;50.218;14.322;2024-02-23T04:29:19;0.32;;;0.20;;
80746;SDS011;75521;50.218;14.322;2024-02-23T04:31:44;0.38;;;0.17;;
80746;SDS011;75521;50.218;14.322;2024-02-23T04:34:10;0.47;;;0.15;;
80746;SDS011;75521;50.218;14.322;2024-02-23T04:36:35;0.32;;;0.10;;
80746;SDS011;75521;50.218;14.322;2024-02-23T04:39:00;0.95;;;0.10;;
80746;SDS011;75521;50.218;14.322;2024-02-23T04:41:26;0.28;;;0.10;;
80746;SDS011;75521;50.218;14.322;2024-02-23T04:43:51;0.20;;;0.20;;
80746;SDS011;75521;50.218;14.322;2024-02-23T04:46:18;0.20;;;0.10;;
80746;SDS011;75521;50.218;14.322;2024-02-23T04:48:43;0.63;;;0.20;;
80746;SDS011;75521;50.218;14.322;2024-02-23T04:51:08;0.17;;;0.17;;
80746;SDS011;75521;50.218;14.322;2024-02-23T04:53:38;0.20;;;0.10;;
80746;SDS011;75521;50.218;14.322;2024-02-23T04:56:03;0.88;;;0.13;;
80746;SDS011;75521;50.218;14.322;2024-02-23T04:58:29;0.55;;;0.20;;
80746;SDS011;75521;50.218;14.322;2024-02-23T05:00:55;0.10;;;0.08;;
80746;SDS011;75521;50.218;14.322;2024-02-23T05:03:20;0.17;;;0.10;;
80746;SDS011;75521;50.218;14.322;2024-02-23T05:05:46;0.30;;;0.20;;
80746;SDS011;75521;50.218;14.322;2024-02-23T05:08:14;0.10;;;0.10;;
80746;SDS011;75521;50.218;14.322;2024-02-23T05:10:39;0.28;;;0.10;;
80746;SDS011;75521;50.218;14.322;2024-02-23T05:13:05;0.40;;;0.10;;
80746;SDS011;75521;50.218;14.322;2024-02-23T05:15:30;0.20;;;0.13;;
80746;SDS011;75521;50.218;14.322;2024-02-23T05:17:55;0.30;;;0.20;;
80746;SDS011;75521;50.218;14.322;2024-02-23T05:20:21;0.43;;;0.35;;
80746;SDS011;75521;50.218;14.322;2024-02-23T05:22:47;2.22;;;0.60;;
80746;SDS011;75521;50.218;14.322;2024-02-23T05:25:12;8.75;;;3.42;;
80746;SDS011;75521;50.218;14.322;2024-02-23T05:27:38;6.68;;;2.15;;
80746;SDS011;75521;50.218;14.322;2024-02-23T05:30:03;6.28;;;3.13;;
80746;SDS011;75521;50.218;14.322;2024-02-23T05:32:29;8.10;;;3.80;;
80746;SDS011;75521;50.218;14.322;2024-02-23T05:34:54;9.10;;;3.30;;
80746;SDS011;75521;50.218;14.322;2024-02-23T05:37:21;10.18;;;3.55;;
80746;SDS011;75521;50.218;14.322;2024-02-23T05:39:47;6.57;;;2.47;;
80746;SDS011;75521;50.218;14.322;2024-02-23T05:42:12;8.70;;;3.13;;
80746;SDS011;75521;50.218;14.322;2024-02-23T05:44:38;37.67;;;11.30;;
80746;SDS011;75521;50.218;14.322;2024-02-23T05:47:04;18.23;;;6.18;;
80746;SDS011;75521;50.218;14.322;2024-02-23T05:49:30;21.95;;;6.40;;
80746;SDS011;75521;50.218;14.322;2024-02-23T05:51:55;14.30;;;4.10;;
80746;SDS011;75521;50.218;14.322;2024-02-23T05:54:20;9.65;;;3.90;;
80746;SDS011;75521;50.218;14.322;2024-02-23T05:56:46;10.40;;;3.75;;
80746;SDS011;75521;50.218;14.322;2024-02-23T05:59:11;15.00;;;4.70;;
80746;SDS011;75521;50.218;14.322;2024-02-23T06:01:36;14.98;;;4.72;;
80746;SDS011;75521;50.218;14.322;2024-02-23T06:04:02;16.15;;;6.30;;
80746;SDS011;75521;50.218;14.322;2024-02-23T06:06:27;6.78;;;2.60;;
80746;SDS011;75521;50.218;14.322;2024-02-23T06:08:53;5.82;;;2.22;;
80746;SDS011;75521;50.218;14.322;2024-02-23T06:11:18;8.32;;;2.97;;
80746;SDS011;75521;50.218;14.322;2024-02-23T06:13:44;10.75;;;2.97;;
80746;SDS011;75521;50.218;14.322;2024-02-23T06:16:09;3.38;;;1.02;;
80746;SDS011;75521;50.218;14.322;2024-02-23T06:18:36;13.70;;;4.72;;
80746;SDS011;75521;50.218;14.322;2024-02-23T06:21:10;4.68;;;1.77;;
80746;SDS011;75521;50.218;14.322;2024-02-23T06:23:36;16.02;;;5.05;;
80746;SDS011;75521;50.218;14.322;2024-02-23T06:26:02;12.68;;;4.78;;
80746;SDS011;75521;50.218;14.322;2024-02-23T06:28:27;36.50;;;11.93;;
80746;SDS011;75521;50.218;14.322;2024-02-23T06:30:52;19.45;;;6.82;;
80746;SDS011;75521;50.218;14.322;2024-02-23T06:33:18;7.82;;;3.58;;
80746;SDS011;75521;50.218;14.322;2024-02-23T06:35:43;7.03;;;2.35;;
80746;SDS011;75521;50.218;14.322;2024-02-23T06:38:08;6.05;;;2.58;;
80746;SDS011;75521;50.218;14.322;2024-02-23T06:40:34;10.00;;;3.45;;
80746;SDS011;75521;50.218;14.322;2024-02-23T06:43:00;13.75;;;4.40;;
80746;SDS011;75521;50.218;14.322;2024-02-23T06:45:25;8.32;;;2.60;;
80746;SDS011;75521;50.218;14.322;2024-02-23T06:47:51;15.52;;;6.05;;
80746;SDS011;75521;50.218;14.322;2024-02-23T06:50:16;22.45;;;9.65;;
80746;SDS011;75521;50.218;14.322;2024-02-23T06:52:41;22.15;;;9.40;;
80746;SDS011;75521;50.218;14.322;2024-02-23T06:55:07;28.77;;;13.02;;
80746;SDS011;75521;50.218;14.322;2024-02-23T06:59:58;9.30;;;3.83;;
80746;SDS011;75521;50.218;14.322;2024-02-23T07:02:24;10.30;;;3.97;;
80746;SDS011;75521;50.218;14.322;2024-02-23T07:04:49;11.30;;;4.03;;
80746;SDS011;75521;50.218;14.322;2024-02-23T07:07:14;11.23;;;4.35;;
80746;SDS011;75521;50.218;14.322;2024-02-23T07:09:40;12.00;;;5.38;;
80746;SDS011;75521;50.218;14.322;2024-02-23T07:12:05;5.32;;;1.48;;
80746;SDS011;75521;50.218;14.322;2024-02-23T07:14:31;28.08;;;11.55;;
80746;SDS011;75521;50.218;14.322;2024-02-23T07:16:57;22.92;;;9.30;;
80746;SDS011;75521;50.218;14.322;2024-02-23T07:19:22;18.27;;;6.15;;
80746;SDS011;75521;50.218;14.322;2024-02-23T07:21:47;23.05;;;7.35;;
80746;SDS011;75521;50.218;14.322;2024-02-23T07:24:13;8.60;;;3.85;;
80746;SDS011;75521;50.218;14.322;2024-02-23T07:26:38;18.35;;;8.65;;
80746;SDS011;75521;50.218;14.322;2024-02-23T07:29:04;7.47;;;3.33;;
80746;SDS011;75521;50.218;14.322;2024-02-23T07:31:29;22.40;;;9.85;;
80746;SDS011;75521;50.218;14.322;2024-02-23T07:33:54;11.50;;;4.68;;
80746;SDS011;75521;50.218;14.322;2024-02-23T07:36:20;4.95;;;2.50;;
80746;SDS011;75521;50.218;14.322;2024-02-23T07:38:45;4.00;;;1.92;;
80746;SDS011;75521;50.218;14.322;2024-02-23T07:41:11;4.35;;;2.75;;
80746;SDS011;75521;50.218;14.322;2024-02-23T07:43:38;4.00;;;1.85;;
80746;SDS011;75521;50.218;14.322;2024-02-23T07:46:03;4.78;;;2.25;;
80746;SDS011;75521;50.218;14.322;2024-02-23T07:48:30;2.58;;;0.93;;
80746;SDS011;75521;50.218;14.322;2024-02-23T07:50:55;1.70;;;0.90;;
80746;SDS011;75521;50.218;14.322;2024-02-23T07:53:21;4.68;;;1.55;;
80746;SDS011;75521;50.218;14.322;2024-02-23T07:55:46;2.13;;;1.13;;
80746;SDS011;75521;50.218;14.322;2024-02-23T07:58:11;1.95;;;1.20;;
80746;SDS011;75521;50.218;14.322;2024-02-23T08:00:37;4.22;;;3.30;;
80746;SDS011;75521;50.218;14.322;2024-02-23T08:03:03;2.38;;;1.35;;
80746;SDS011;75521;50.218;14.322;2024-02-23T08:05:29;3.42;;;1.77;;
80746;SDS011;75521;50.218;14.322;2024-02-23T08:07:54;5.88;;;2.00;;
80746;SDS011;75521;50.218;14.322;2024-02-23T08:10:19;3.05;;;1.27;;
80746;SDS011;75521;50.218;14.322;2024-02-23T08:12:45;1.77;;;0.73;;
80746;SDS011;75521;50.218;14.322;2024-02-23T08:15:11;1.98;;;0.60;;
80746;SDS011;75521;50.218;14.322;2024-02-23T08:17:37;0.65;;;0.45;;
80746;SDS011;75521;50.218;14.322;2024-02-23T08:20:03;1.50;;;0.60;;
80746;SDS011;75521;50.218;14.322;2024-02-23T08:22:29;0.43;;;0.20;;
80746;SDS011;75521;50.218;14.322;2024-02-23T08:24:54;2.90;;;0.30;;
80746;SDS011;75521;50.218;14.322;2024-02-23T08:27:20;1.80;;;0.43;;
80746;SDS011;75521;50.218;14.322;2024-02-23T08:29:45;0.90;;;0.30;;
80746;SDS011;75521;50.218;14.322;2024-02-23T08:32:10;1.40;;;0.20;;
80746;SDS011;75521;50.218;14.322;2024-02-23T08:34:36;0.22;;;0.20;;
80746;SDS011;75521;50.218;14.322;2024-02-23T08:37:01;6.32;;;2.33;;
80746;SDS011;75521;50.218;14.322;2024-02-23T08:39:26;15.02;;;6.55;;
80746;SDS011;75521;50.218;14.322;2024-02-23T08:41:52;62.75;;;22.77;;
80746;SDS011;75521;50.218;14.322;2024-02-23T08:44:18;26.30;;;11.85;;
80746;SDS011;75521;50.218;14.322;2024-02-23T08:46:43;10.90;;;4.53;;
80746;SDS011;75521;50.218;14.322;2024-02-23T08:49:09;5.70;;;2.22;;
80746;SDS011;75521;50.218;14.322;2024-02-23T08:51:34;5.20;;;1.92;;
80746;SDS011;75521;50.218;14.322;2024-02-23T08:53:59;11.85;;;4.43;;
80746;SDS011;75521;50.218;14.322;2024-02-23T08:56:29;2.03;;;1.27;;
80746;SDS011;75521;50.218;14.322;2024-02-23T08:58:55;5.30;;;2.47;;
80746;SDS011;75521;50.218;14.322;2024-02-23T09:01:20;2.78;;;0.95;;
80746;SDS011;75521;50.218;14.322;2024-02-23T09:03:45;7.10;;;1.95;;
80746;SDS011;75521;50.218;14.322;2024-02-23T09:06:11;2.53;;;1.48;;
80746;SDS011;75521;50.218;14.322;2024-02-23T09:08:36;2.60;;;0.60;;
80746;SDS011;75521;50.218;14.322;2024-02-23T09:11:01;11.52;;;3.75;;
80746;SDS011;75521;50.218;14.322;2024-02-23T09:13:27;39.95;;;15.05;;
80746;SDS011;75521;50.218;14.322;2024-02-23T09:15:54;30.98;;;10.20;;
80746;SDS011;75521;50.218;14.322;2024-02-23T09:18:20;39.33;;;12.75;;
80746;SDS011;75521;50.218;14.322;2024-02-23T09:20:45;102.32;;;33.60;;
80746;SDS011;75521;50.218;14.322;2024-02-23T09:23:10;33.13;;;12.00;;
80746;SDS011;75521;50.218;14.322;2024-02-23T09:25:37;65.53;;;22.40;;
80746;SDS011;75521;50.218;14.322;2024-02-23T09:28:02;24.27;;;10.32;;
80746;SDS011;75521;50.218;14.322;2024-02-23T09:30:28;12.65;;;5.65;;
80746;SDS011;75521;50.218;14.322;2024-02-23T09:32:54;7.13;;;3.00;;
80746;SDS011;75521;50.218;14.322;2024-02-23T09:35:19;7.47;;;2.92;;
80746;SDS011;75521;50.218;14.322;2024-02-23T09:37:45;2.35;;;1.13;;
80746;SDS011;75521;50.218;14.322;2024-02-23T09:40:10;10.70;;;5.15;;
80746;SDS011;75521;50.218;14.322;2024-02-23T09:42:36;21.45;;;7.65;;
80746;SDS011;75521;50.218;14.322;2024-02-23T09:45:03;27.10;;;12.27;;
80746;SDS011;75521;50.218;14.322;2024-02-23T09:47:30;14.57;;;6.20;;
80746;SDS011;75521;50.218;14.322;2024-02-23T09:49:56;14.20;;;6.22;;
80746;SDS011;75521;50.218;14.322;2024-02-23T09:52:22;42.35;;;20.85;;
80746;SDS011;75521;50.218;14.322;2024-02-23T09:54:48;37.72;;;20.52;;
80746;SDS011;75521;50.218;14.322;2024-02-23T09:57:14;6.75;;;4.43;;
80746;SDS011;75521;50.218;14.322;2024-02-23T09:59:41;4.57;;;2.10;;
80746;SDS011;75521;50.218;14.322;2024-02-23T10:02:08;2.20;;;0.98;;
80746;SDS011;75521;50.218;14.322;2024-02-23T10:04:37;2.83;;;1.30;;
80746;SDS011;75521;50.218;14.322;2024-02-23T10:07:04;1.80;;;0.70;;
80746;SDS011;75521;50.218;14.322;2024-02-23T10:09:31;2.55;;;0.90;;
80746;SDS011;75521;50.218;14.322;2024-02-23T10:11:56;3.40;;;0.80;;
80746;SDS011;75521;50.218;14.322;2024-02-23T10:14:22;2.95;;;0.80;;
80746;SDS011;75521;50.218;14.322;2024-02-23T10:16:48;2.45;;;1.17;;
80746;SDS011;75521;50.218;14.322;2024-02-23T10:19:18;2.75;;;1.00;;
80746;SDS011;75521;50.218;14.322;2024-02-23T10:21:47;1.80;;;0.95;;
80746;SDS011;75521;50.218;14.322;2024-02-23T10:24:13;2.85;;;0.85;;
80746;SDS011;75521;50.218;14.322;2024-02-23T10:26:42;1.45;;;0.80;;
80746;SDS011;75521;50.218;14.322;2024-02-23T10:29:07;1.13;;;0.65;;
80746;SDS011;75521;50.218;14.322;2024-02-23T10:31:34;1.05;;;0.70;;
80746;SDS011;75521;50.218;14.322;2024-02-23T10:34:08;1.67;;;0.63;;
80746;SDS011;75521;50.218;14.322;2024-02-23T10:36:40;2.20;;;0.80;;
80746;SDS011;75521;50.218;14.322;2024-02-23T10:39:07;2.47;;;1.52;;
80746;SDS011;75521;50.218;14.322;2024-02-23T10:41:37;2.33;;;0.95;;
80746;SDS011;75521;50.218;14.322;2024-02-23T10:44:08;1.95;;;0.50;;
80746;SDS011;75521;50.218;14.322;2024-02-23T10:46:34;1.63;;;0.70;;
80746;SDS011;75521;50.218;14.322;2024-02-23T10:49:00;2.22;;;0.80;;
80746;SDS011;75521;50.218;14.322;2024-02-23T10:51:26;2.13;;;1.23;;
80746;SDS011;75521;50.218;14.322;2024-02-23T10:53:52;3.35;;;1.05;;
80746;SDS011;75521;50.218;14.322;2024-02-23T10:56:18;2.38;;;0.80;;
80746;SDS011;75521;50.218;14.322;2024-02-23T10:58:44;2.67;;;0.80;;
80746;SDS011;75521;50.218;14.322;2024-02-23T11:01:10;1.30;;;0.85;;
80746;SDS011;75521;50.218;14.322;2024-02-23T11:03:37;1.35;;;0.80;;
80746;SDS011;75521;50.218;14.322;2024-02-23T11:06:06;2.40;;;0.90;;
80746;SDS011;75521;50.218;14.322;2024-02-23T11:08:35;2.85;;;1.50;;
80746;SDS011;75521;50.218;14.322;2024-02-23T11:11:11;2.35;;;1.52;;
80746;SDS011;75521;50.218;14.322;2024-02-23T11:13:37;2.88;;;1.08;;
80746;SDS011;75521;50.218;14.322;2024-02-23T11:16:08;3.78;;;1.10;;
80746;SDS011;75521;50.218;14.322;2024-02-23T11:18:36;3.45;;;3.15;;
80746;SDS011;75521;50.218;14.322;2024-02-23T11:21:04;2.67;;;1.60;;
80746;SDS011;75521;50.218;14.322;2024-02-23T11:23:44;2.78;;;2.33;;
80746;SDS011;75521;50.218;14.322;2024-02-23T11:26:14;4.72;;;1.20;;
80746;SDS011;75521;50.218;14.322;2024-02-23T11:28:50;3.35;;;1.42;;
80746;SDS011;75521;50.218;14.322;2024-02-23T11:31:19;2.75;;;1.35;;
80746;SDS011;75521;50.218;14.322;2024-02-23T11:33:49;3.85;;;1.02;;
80746;SDS011;75521;50.218;14.322;2024-02-23T11:36:27;3.67;;;1.25;;
80746;SDS011;75521;50.218;14.322;2024-02-23T11:38:56;3.58;;;1.48;;
80746;SDS011;75521;50.218;14.322;2024-02-23T11:41:22;3.03;;;1.02;;
80746;SDS011;75521;50.218;14.322;2024-02-23T11:43:49;1.40;;;0.70;;
80746;SDS011;75521;50.218;14.322;2024-02-23T11:46:16;2.90;;;1.00;;
80746;SDS011;75521;50.218;14.322;2024-02-23T11:48:42;2.30;;;1.60;;
80746;SDS011;75521;50.218;14.322;2024-02-23T11:51:08;3.08;;;1.00;;
80746;SDS011;75521;50.218;14.322;2024-02-23T11:53:34;1.75;;;1.00;;
80746;SDS011;75521;50.218;14.322;2024-02-23T11:56:01;2.17;;;1.00;;
80746;SDS011;75521;50.218;14.322;2024-02-23T11:58:27;1.27;;;0.45;;
80746;SDS011;75521;50.218;14.322;2024-02-23T12:00:52;0.90;;;0.50;;
80746;SDS011;75521;50.218;14.322;2024-02-23T12:03:18;3.88;;;1.20;;
80746;SDS011;75521;50.218;14.322;2024-02-23T12:05:43;3.88;;;0.90;;
80746;SDS011;75521;50.218;14.322;2024-02-23T12:08:08;3.33;;;0.98;;
80746;SDS011;75521;50.218;14.322;2024-02-23T12:10:34;3.17;;;1.42;;
80746;SDS011;75521;50.218;14.322;2024-02-23T12:12:59;2.40;;;1.02;;
80746;SDS011;75521;50.218;14.322;2024-02-23T12:15:25;1.90;;;1.20;;
80746;SDS011;75521;50.218;14.322;2024-02-23T12:17:50;6.82;;;3.15;;
80746;SDS011;75521;50.218;14.322;2024-02-23T12:20:16;8.57;;;3.97;;
80746;SDS011;75521;50.218;14.322;2024-02-23T12:22:41;8.50;;;4.40;;
80746;SDS011;75521;50.218;14.322;2024-02-23T12:25:07;15.13;;;5.93;;
80746;SDS011;75521;50.218;14.322;2024-02-23T12:27:32;9.98;;;3.80;;
80746;SDS011;75521;50.218;14.322;2024-02-23T12:29:58;18.00;;;6.85;;
80746;SDS011;75521;50.218;14.322;2024-02-23T12:32:24;14.88;;;5.68;;
80746;SDS011;75521;50.218;14.322;2024-02-23T12:34:50;6.05;;;2.55;;
80746;SDS011;75521;50.218;14.322;2024-02-23T12:37:15;37.15;;;10.45;;
80746;SDS011;75521;50.218;14.322;2024-02-23T12:39:42;41.25;;;16.25;;
80746;SDS011;75521;50.218;14.322;2024-02-23T12:42:08;11.70;;;4.20;;
80746;SDS011;75521;50.218;14.322;2024-02-23T12:44:33;6.90;;;3.45;;
80746;SDS011;75521;50.218;14.322;2024-02-23T12:46:58;6.30;;;3.38;;
80746;SDS011;75521;50.218;14.322;2024-02-23T12:49:24;8.18;;;4.80;;
80746;SDS011;75521;50.218;14.322;2024-02-23T12:51:49;14.93;;;7.97;;
80746;SDS011;75521;50.218;14.322;2024-02-23T12:54:14;16.90;;;8.85;;
80746;SDS011;75521;50.218;14.322;2024-02-23T12:56:40;18.02;;;9.25;;
80746;SDS011;75521;50.218;14.322;2024-02-23T12:59:05;13.73;;;6.78;;
80746;SDS011;75521;50.218;14.322;2024-02-23T13:01:30;13.20;;;6.45;;
80746;SDS011;75521;50.218;14.322;2024-02-23T13:03:59;4.43;;;1.70;;
80746;SDS011;75521;50.218;14.322;2024-02-23T13:06:24;3.90;;;1.70;;
80746;SDS011;75521;50.218;14.322;2024-02-23T13:08:50;3.40;;;1.00;;
80746;SDS011;75521;50.218;14.322;2024-02-23T13:11:15;2.67;;;1.10;;
80746;SDS011;75521;50.218;14.322;2024-02-23T13:13:41;3.30;;;1.05;;
80746;SDS011;75521;50.218;14.322;2024-02-23T13:16:06;3.30;;;0.93;;
80746;SDS011;75521;50.218;14.322;2024-02-23T13:18:33;2.53;;;0.90;;
80746;SDS011;75521;50.218;14.322;2024-02-23T13:20:59;2.38;;;1.30;;
80746;SDS011;75521;50.218;14.322;2024-02-23T13:23:24;2.67;;;1.42;;
80746;SDS011;75521;50.218;14.322;2024-02-23T13:25:50;4.60;;;2.10;;
80746;SDS011;75521;50.218;14.322;2024-02-23T13:28:15;2.80;;;1.33;;
80746;SDS011;75521;50.218;14.322;2024-02-23T13:30:40;1.90;;;0.80;;
80746;SDS011;75521;50.218;14.322;2024-02-23T13:33:06;3.15;;;0.98;;
80746;SDS011;75521;50.218;14.322;2024-02-23T13:35:33;1.85;;;0.93;;
80746;SDS011;75521;50.218;14.322;2024-02-23T13:37:59;2.13;;;0.85;;
80746;SDS011;75521;50.218;14.322;2024-02-23T13:40:24;2.95;;;1.00;;
80746;SDS011;75521;50.218;14.322;2024-02-23T13:42:50;1.77;;;0.65;;
80746;SDS011;75521;50.218;14.322;2024-02-23T13:45:17;4.63;;;1.30;;
80746;SDS011;75521;50.218;14.322;2024-02-23T13:47:44;4.55;;;1.00;;
80746;SDS011;75521;50.218;14.322;2024-02-23T13:50:21;4.50;;;1.00;;
80746;SDS011;75521;50.218;14.322;2024-02-23T13:52:47;1.70;;;0.88;;
80746;SDS011;75521;50.218;14.322;2024-02-23T13:55:12;2.30;;;0.70;;
80746;SDS011;75521;50.218;14.322;2024-02-23T13:57:38;3.20;;;1.15;;
80746;SDS011;75521;50.218;14.322;2024-02-23T14:00:04;2.05;;;1.13;;
80746;SDS011;75521;50.218;14.322;2024-02-23T14:02:33;2.42;;;1.35;;
80746;SDS011;75521;50.218;14.322;2024-02-23T14:05:00;3.55;;;1.48;;
80746;SDS011;75521;50.218;14.322;2024-02-23T14:07:31;2.38;;;1.10;;
80746;SDS011;75521;50.218;14.322;2024-02-23T14:09:57;1.90;;;0.98;;
80746;SDS011;75521;50.218;14.322;2024-02-23T14:12:22;3.38;;;1.60;;
80746;SDS011;75521;50.218;14.322;2024-02-23T14:14:48;2.53;;;0.95;;
80746;SDS011;75521;50.218;14.322;2024-02-23T14:17:13;2.00;;;1.00;;
80746;SDS011;75521;50.218;14.322;2024-02-23T14:19:39;2.53;;;0.93;;
80746;SDS011;75521;50.218;14.322;2024-02-23T14:22:04;3.15;;;1.02;;
80746;SDS011;75521;50.218;14.322;2024-02-23T14:24:30;2.35;;;0.70;;
80746;SDS011;75521;50.218;14.322;2024-02-23T14:26:55;1.83;;;0.80;;
80746;SDS011;75521;50.218;14.322;2024-02-23T14:29:21;2.35;;;1.13;;